createdAt,value
2018-06-27T00:00:24.541Z,5.83
2018-06-27T00:02:53.619Z,3.90
2018-06-27T00:05:23.297Z,8.50
2018-06-27T00:07:51.999Z,6.23
2018-06-27T00:10:20.597Z,3.80
2018-06-27T00:12:49.199Z,7.23
2018-06-27T00:15:17.946Z,6.13
2018-06-27T00:17:46.605Z,4.83
2018-06-27T00:20:15.235Z,5.60
2018-06-27T00:22:43.864Z,5.90
2018-06-27T00:25:12.569Z,8.50
2018-06-27T00:27:42.173Z,4.03
2018-06-27T00:30:10.845Z,6.87
2018-06-27T00:32:39.572Z,5.53
2018-06-27T00:35:08.226Z,5.10
2018-06-27T00:37:36.916Z,7.47
2018-06-27T00:40:05.630Z,5.93
2018-06-27T00:42:34.313Z,8.83
2018-06-27T00:45:03.009Z,6.37
2018-06-27T00:47:31.767Z,8.23
2018-06-27T00:50:00.383Z,6.43
2018-06-27T00:52:29.126Z,6.50
2018-06-27T00:54:58.856Z,8.60
2018-06-27T00:57:27.461Z,5.57
2018-06-27T00:59:56.188Z,5.80
2018-06-27T01:02:25.855Z,5.90
2018-06-27T01:04:55.680Z,4.93
2018-06-27T01:07:24.340Z,5.70
2018-06-27T01:09:52.764Z,5.03
2018-06-27T01:12:21.446Z,10.80
2018-06-27T01:14:50.769Z,9.00
2018-06-27T01:17:19.461Z,5.63
2018-06-27T01:19:48.127Z,4.93
2018-06-27T01:22:17.763Z,6.67
2018-06-27T01:24:51.440Z,7.30
2018-06-27T01:27:20.190Z,8.50
2018-06-27T01:29:48.848Z,6.03
2018-06-27T01:32:17.612Z,7.00
2018-06-27T01:34:46.321Z,9.47
2018-06-27T01:37:16.145Z,8.97
2018-06-27T01:39:46.789Z,6.87
2018-06-27T01:42:15.419Z,10.97
2018-06-27T01:44:44.194Z,8.17
2018-06-27T01:47:13.860Z,8.27
2018-06-27T01:49:42.622Z,6.87
2018-06-27T01:52:11.296Z,7.63
2018-06-27T01:54:40.071Z,10.50
2018-06-27T01:57:09.501Z,7.67
2018-06-27T01:59:38.267Z,6.90
2018-06-27T02:02:06.909Z,9.90
2018-06-27T02:04:35.968Z,9.10
2018-06-27T02:07:05.397Z,10.10
2018-06-27T02:09:34.080Z,8.00
2018-06-27T02:12:02.738Z,8.00
2018-06-27T02:14:31.390Z,9.87
2018-06-27T02:17:00.139Z,10.47
2018-06-27T02:19:28.783Z,9.30
2018-06-27T02:22:01.313Z,10.83
2018-06-27T02:24:29.960Z,8.13
2018-06-27T02:26:58.652Z,10.50
2018-06-27T02:29:27.316Z,15.00
2018-06-27T02:31:56.167Z,10.67
2018-06-27T02:34:24.896Z,15.90
2018-06-27T02:36:53.665Z,11.90
2018-06-27T02:39:23.335Z,10.83
2018-06-27T02:41:52.078Z,12.40
2018-06-27T02:44:20.868Z,12.87
2018-06-27T02:46:49.634Z,13.77
2018-06-27T02:49:18.334Z,12.03
2018-06-27T02:51:47.147Z,8.03
2018-06-27T02:54:15.858Z,9.47
2018-06-27T02:56:44.603Z,13.90
2018-06-27T02:59:13.283Z,10.77
2018-06-27T03:01:42.042Z,8.97
2018-06-27T03:04:10.706Z,14.33
2018-06-27T03:06:40.069Z,8.93
2018-06-27T03:09:10.202Z,9.97
2018-06-27T03:11:39.041Z,13.37
2018-06-27T03:14:07.766Z,14.70
2018-06-27T03:16:36.473Z,11.03
2018-06-27T03:19:05.259Z,10.17
2018-06-27T03:21:34.209Z,11.27
2018-06-27T03:24:03.567Z,11.47
2018-06-27T03:26:31.808Z,13.40
2018-06-27T03:29:00.592Z,12.00
2018-06-27T03:31:29.376Z,19.07
2018-06-27T03:33:58.050Z,14.30
2018-06-27T03:36:27.761Z,16.77
2018-06-27T03:38:56.519Z,14.27
2018-06-27T03:41:25.171Z,10.87
2018-06-27T03:43:53.876Z,12.77
2018-06-27T03:46:23.592Z,13.77
2018-06-27T03:48:52.324Z,11.27
2018-06-27T03:51:21.001Z,12.37
2018-06-27T03:53:55.011Z,11.13
2018-06-27T03:56:23.637Z,12.73
2018-06-27T03:58:54.543Z,11.53
2018-06-27T04:01:23.401Z,13.27
2018-06-27T04:03:52.039Z,10.87
2018-06-27T04:06:20.871Z,14.10
2018-06-27T04:08:49.594Z,14.30
2018-06-27T04:11:18.302Z,13.20
2018-06-27T04:13:47.934Z,10.27
2018-06-27T04:16:16.196Z,15.40
2018-06-27T04:18:45.293Z,17.67
2018-06-27T04:21:13.949Z,10.83
2018-06-27T04:23:42.842Z,9.23
2018-06-27T04:26:11.719Z,16.27
2018-06-27T04:28:41.875Z,13.57
2018-06-27T04:31:10.817Z,15.30
2018-06-27T04:33:39.809Z,15.57
2018-06-27T04:36:08.975Z,16.40
2018-06-27T04:38:37.956Z,14.43
2018-06-27T04:41:08.671Z,12.10
2018-06-27T04:43:38.646Z,11.83
2018-06-27T04:46:07.710Z,9.23
2018-06-27T04:48:36.582Z,11.10
2018-06-27T04:51:06.301Z,16.90
2018-06-27T04:53:36.198Z,11.23
2018-06-27T04:56:05.120Z,9.63
2018-06-27T04:58:33.930Z,14.93
2018-06-27T05:01:03.879Z,14.77
2018-06-27T05:03:32.891Z,9.77
2018-06-27T05:06:01.653Z,9.30
2018-06-27T05:08:30.486Z,8.20
2018-06-27T05:10:58.880Z,9.70
2018-06-27T05:13:27.355Z,9.90
2018-06-27T05:15:56.324Z,11.90
2018-06-27T05:18:25.974Z,9.07
2018-06-27T05:20:55.103Z,9.97
2018-06-27T05:23:23.891Z,11.93
2018-06-27T05:25:54.353Z,11.60
2018-06-27T05:28:25.248Z,8.07
2018-06-27T05:30:54.137Z,10.37
2018-06-27T05:33:22.944Z,12.33
2018-06-27T05:35:52.238Z,8.93
2018-06-27T05:38:27.340Z,8.60
2018-06-27T05:40:56.666Z,7.63
2018-06-27T05:43:25.516Z,7.07
2018-06-27T05:45:56.427Z,12.83
2018-06-27T05:48:25.234Z,7.73
2018-06-27T05:50:55.002Z,11.90
2018-06-27T05:53:23.744Z,7.93
2018-06-27T05:55:53.452Z,10.07
2018-06-27T05:58:22.356Z,8.27
2018-06-27T06:00:57.006Z,12.20
2018-06-27T06:03:25.933Z,8.37
2018-06-27T06:05:55.067Z,10.93
2018-06-27T06:08:23.947Z,9.37
2018-06-27T06:10:52.828Z,11.07
2018-06-27T06:13:22.992Z,15.20
2018-06-27T06:15:52.294Z,8.77
2018-06-27T06:18:21.390Z,11.40
2018-06-27T06:20:52.967Z,9.60
2018-06-27T06:23:22.231Z,12.30
2018-06-27T06:25:59.736Z,10.30
2018-06-27T06:28:30.106Z,12.27
2018-06-27T06:31:02.282Z,18.07
2018-06-27T06:33:37.204Z,17.90
2018-06-27T06:36:09.884Z,11.97
2018-06-27T06:38:41.801Z,10.33
2018-06-27T06:41:10.952Z,8.50
2018-06-27T06:43:44.241Z,11.10
2018-06-27T06:46:13.168Z,9.27
2018-06-27T06:48:41.984Z,13.50
2018-06-27T06:51:12.963Z,12.00
2018-06-27T06:53:44.072Z,12.23
2018-06-27T06:56:13.774Z,16.23
2018-06-27T06:58:42.542Z,11.60
2018-06-27T07:01:12.320Z,10.80
2018-06-27T07:03:41.227Z,10.23
2018-06-27T07:06:12.052Z,10.93
2018-06-27T07:08:46.375Z,10.33
2018-06-27T07:11:15.408Z,11.63
2018-06-27T07:13:44.075Z,12.20
2018-06-27T07:16:12.856Z,9.93
2018-06-27T07:18:46.087Z,8.97
2018-06-27T07:21:14.997Z,12.17
2018-06-27T07:23:43.851Z,9.60
2018-06-27T07:26:12.995Z,11.00
2018-06-27T07:28:41.969Z,10.20
2018-06-27T07:31:10.965Z,11.13
2018-06-27T07:33:40.519Z,10.33
2018-06-27T07:36:09.980Z,9.17
2018-06-27T07:38:38.851Z,10.20
2018-06-27T07:41:08.716Z,11.80
2018-06-27T07:43:37.974Z,11.73
2018-06-27T07:46:10.829Z,12.13
2018-06-27T07:48:39.859Z,12.83
2018-06-27T07:51:12.914Z,12.17
2018-06-27T07:53:42.016Z,10.93
2018-06-27T07:56:10.930Z,16.10
2018-06-27T07:58:39.888Z,16.40
2018-06-27T08:01:08.807Z,10.93
2018-06-27T08:03:37.875Z,10.13
2018-06-27T08:06:07.027Z,9.23
2018-06-27T08:08:36.287Z,9.90
2018-06-27T08:11:06.294Z,14.17
2018-06-27T08:13:35.251Z,11.67
2018-06-27T08:16:04.296Z,14.13
2018-06-27T08:18:44.097Z,13.60
2018-06-27T08:21:13.132Z,10.47
2018-06-27T08:23:42.574Z,11.67
2018-06-27T08:26:12.605Z,14.83
2018-06-27T08:28:41.837Z,13.20
2018-06-27T08:31:11.287Z,14.83
2018-06-27T08:33:44.776Z,12.67
2018-06-27T08:36:15.072Z,13.90
2018-06-27T08:38:46.736Z,13.77
2018-06-27T08:41:15.710Z,13.20
2018-06-27T08:43:44.650Z,13.13
2018-06-27T08:46:15.311Z,19.83
2018-06-27T08:48:45.585Z,10.80
2018-06-27T08:51:15.665Z,11.47
2018-06-27T08:53:44.948Z,14.17
2018-06-27T08:56:15.302Z,11.50
2018-06-27T08:58:45.347Z,12.17
2018-06-27T09:03:33.762Z,11.20
2018-06-27T09:06:04.007Z,9.37
2018-06-27T09:08:36.027Z,10.17
2018-06-27T09:11:07.034Z,10.63
2018-06-27T09:13:36.706Z,9.03
2018-06-27T09:16:06.978Z,7.50
2018-06-27T09:18:41.742Z,7.10
2018-06-27T09:21:27.980Z,6.53
2018-06-27T09:23:59.584Z,8.10
2018-06-27T09:26:29.417Z,8.07
2018-06-27T09:28:59.609Z,7.13
2018-06-27T09:31:36.165Z,8.33
2018-06-27T09:34:13.695Z,12.73
2018-06-27T09:36:46.742Z,12.33
2018-06-27T09:39:16.647Z,18.73
2018-06-27T09:41:48.249Z,6.57
2018-06-27T09:44:23.129Z,6.70
2018-06-27T09:46:57.203Z,7.33
2018-06-27T09:49:34.051Z,8.43
2018-06-27T09:52:04.567Z,9.00
2018-06-27T09:54:45.037Z,7.30
2018-06-27T09:57:19.536Z,7.63
2018-06-27T09:59:53.908Z,5.90
2018-06-27T10:02:23.660Z,5.13
2018-06-27T10:05:00.744Z,9.13
2018-06-27T10:07:31.938Z,5.20
2018-06-27T10:10:03.245Z,6.23
2018-06-27T10:12:38.022Z,6.33
2018-06-27T10:15:24.487Z,8.53
2018-06-27T10:17:54.399Z,8.70
2018-06-27T10:20:23.830Z,7.37
2018-06-27T10:23:01.430Z,5.47
2018-06-27T10:25:35.342Z,7.70
2018-06-27T10:28:11.020Z,6.57
2018-06-27T10:30:46.918Z,7.50
2018-06-27T10:33:20.552Z,7.57
2018-06-27T10:35:53.263Z,5.50
2018-06-27T10:38:24.697Z,5.30
2018-06-27T10:40:57.180Z,4.47
2018-06-27T10:43:34.808Z,6.60
2018-06-27T10:46:05.160Z,9.17
2018-06-27T10:48:35.710Z,5.80
2018-06-27T10:51:06.574Z,5.07
2018-06-27T10:53:41.547Z,6.10
2018-06-27T10:56:11.968Z,5.13
2018-06-27T10:58:42.347Z,6.40
2018-06-27T11:01:12.379Z,3.60
2018-06-27T11:03:44.364Z,5.87
2018-06-27T11:06:15.558Z,5.57
2018-06-27T11:08:45.448Z,7.27
2018-06-27T11:11:19.961Z,5.23
2018-06-27T11:13:53.497Z,4.50
2018-06-27T11:16:23.223Z,3.63
2018-06-27T11:18:52.636Z,6.27
2018-06-27T11:21:23.308Z,5.20
2018-06-27T11:24:00.488Z,6.50
2018-06-27T11:26:34.351Z,4.33
2018-06-27T11:29:03.749Z,3.40
2018-06-27T11:31:38.501Z,5.43
2018-06-27T11:34:11.199Z,3.20
2018-06-27T11:36:41.907Z,9.93
2018-06-27T11:39:14.196Z,6.53
2018-06-27T11:41:46.170Z,3.50
2018-06-27T11:52:52.571Z,4.33
2018-06-27T11:55:24.165Z,3.07
2018-06-27T11:57:54.440Z,5.47
2018-06-27T12:00:28.454Z,4.93
2018-06-27T12:03:01.710Z,5.13
2018-06-27T12:05:32.216Z,3.30
2018-06-27T12:08:05.638Z,4.47
2018-06-27T12:10:43.254Z,4.20
2018-06-27T12:13:14.781Z,4.03
2018-06-27T12:15:56.544Z,4.50
2018-06-27T12:18:27.141Z,4.73
2018-06-27T12:21:02.570Z,5.30
2018-06-27T12:23:33.420Z,6.60
2018-06-27T12:26:03.507Z,3.77
2018-06-27T12:28:33.152Z,2.73
2018-06-27T12:31:07.932Z,5.23
2018-06-27T12:33:37.159Z,2.00
2018-06-27T12:36:07.019Z,2.67
2018-06-27T12:38:40.351Z,2.23
2018-06-27T12:41:13.185Z,3.40
2018-06-27T12:43:47.480Z,4.40
2018-06-27T12:46:17.934Z,2.73
2018-06-27T12:48:47.484Z,7.87
2018-06-27T12:51:17.118Z,2.00
2018-06-27T12:53:48.313Z,1.63
2018-06-27T12:56:19.511Z,3.90
2018-06-27T12:58:51.329Z,6.77
2018-06-27T13:01:22.441Z,2.00
2018-06-27T13:03:52.032Z,2.97
2018-06-27T13:06:23.628Z,2.83
2018-06-27T13:08:56.890Z,7.87
2018-06-27T13:11:34.506Z,10.77
2018-06-27T13:14:04.652Z,4.93
2018-06-27T13:16:37.662Z,3.07
2018-06-27T13:19:13.191Z,3.70
2018-06-27T13:21:42.902Z,5.57
2018-06-27T13:24:13.348Z,5.27
2018-06-27T13:26:43.382Z,4.37
2018-06-27T13:29:12.530Z,2.47
2018-06-27T13:31:43.066Z,2.93
2018-06-27T13:34:17.178Z,3.07
2018-06-27T13:36:47.327Z,1.73
2018-06-27T13:39:17.291Z,2.13
2018-06-27T13:41:48.571Z,12.30
2018-06-27T13:44:25.189Z,8.37
2018-06-27T13:46:59.411Z,6.47
2018-06-27T13:49:34.950Z,2.10
2018-06-27T13:52:04.409Z,6.77
2018-06-27T13:54:35.468Z,3.10
2018-06-27T13:57:07.378Z,5.10
2018-06-27T13:59:37.729Z,3.10
2018-06-27T14:02:07.853Z,5.13
2018-06-27T14:04:36.736Z,3.67
2018-06-27T14:07:06.464Z,2.10
2018-06-27T14:09:40.318Z,5.37
2018-06-27T14:12:10.213Z,11.13
2018-06-27T14:14:40.710Z,5.57
2018-06-27T14:17:11.552Z,5.93
2018-06-27T14:19:40.469Z,3.47
2018-06-27T14:22:10.266Z,3.03
2018-06-27T14:24:39.329Z,2.57
2018-06-27T14:27:08.092Z,3.87
2018-06-27T14:29:36.927Z,7.80
2018-06-27T14:32:07.822Z,7.30
2018-06-27T14:34:37.770Z,5.07
2018-06-27T14:37:07.013Z,6.10
2018-06-27T14:39:41.838Z,5.07
2018-06-27T14:42:11.046Z,3.60
2018-06-27T14:44:39.989Z,11.63
2018-06-27T14:47:10.206Z,10.87
2018-06-27T14:49:39.123Z,6.10
2018-06-27T14:52:08.188Z,3.60
2018-06-27T14:54:37.107Z,15.87
2018-06-27T14:57:07.816Z,2.67
2018-06-27T14:59:36.998Z,2.50
2018-06-27T15:02:06.989Z,4.37
2018-06-27T15:04:36.791Z,2.87
2018-06-27T15:07:07.251Z,2.17
2018-06-27T15:09:36.327Z,1.87
2018-06-27T15:12:06.425Z,4.73
2018-06-27T15:14:35.431Z,3.07
2018-06-27T15:17:06.612Z,5.93
2018-06-27T15:19:39.821Z,3.23
2018-06-27T15:22:14.773Z,6.93
2018-06-27T15:24:48.815Z,2.30
2018-06-27T15:27:22.473Z,4.40
2018-06-27T15:30:04.502Z,3.60
2018-06-27T15:32:40.288Z,4.80
2018-06-27T15:35:16.918Z,2.97
2018-06-27T15:40:39.194Z,5.37
2018-06-27T15:43:11.498Z,2.47
2018-06-27T15:45:51.299Z,4.53
2018-06-27T15:48:43.737Z,2.13
2018-06-27T15:51:16.415Z,2.23
2018-06-27T15:53:45.138Z,3.37
2018-06-27T15:56:13.866Z,5.30
2018-06-27T15:58:42.530Z,5.17
2018-06-27T16:01:11.355Z,6.03
2018-06-27T16:03:41.107Z,2.33
2018-06-27T16:06:10.888Z,1.93
2018-06-27T16:08:39.727Z,1.60
2018-06-27T16:11:08.547Z,3.07
2018-06-27T16:13:37.400Z,2.40
2018-06-27T16:16:06.184Z,1.27
2018-06-27T16:18:35.525Z,5.03
2018-06-27T16:21:04.432Z,2.43
2018-06-27T16:23:33.203Z,1.80
2018-06-27T16:26:01.963Z,2.10
2018-06-27T16:28:31.299Z,1.77
2018-06-27T16:31:00.030Z,1.97
2018-06-27T16:33:28.770Z,3.77
2018-06-27T16:35:57.496Z,1.70
2018-06-27T16:38:26.218Z,3.27
2018-06-27T16:40:54.998Z,2.90
2018-06-27T16:43:23.681Z,2.67
2018-06-27T16:45:53.393Z,3.07
2018-06-27T16:48:22.172Z,4.87
2018-06-27T16:50:51.119Z,4.93
2018-06-27T16:53:20.702Z,3.20
2018-06-27T16:55:49.451Z,2.20
2018-06-27T16:58:18.180Z,1.67
2018-06-27T17:00:46.980Z,1.60
2018-06-27T17:03:15.743Z,1.70
2018-06-27T17:05:44.603Z,2.60
2018-06-27T17:08:13.331Z,2.57
2018-06-27T17:10:42.026Z,1.73
2018-06-27T17:13:11.329Z,3.90
2018-06-27T17:15:40.088Z,2.53
2018-06-27T17:18:08.861Z,1.93
2018-06-27T17:20:37.588Z,1.60
2018-06-27T17:23:06.322Z,3.52
2018-06-27T17:25:34.987Z,1.27
2018-06-27T17:28:03.760Z,3.23
2018-06-27T17:30:32.461Z,2.58
2018-06-27T17:33:01.311Z,2.13
2018-06-27T17:35:30.332Z,1.30
2018-06-27T17:37:59.065Z,2.10
2018-06-27T17:40:27.359Z,2.13
2018-06-27T17:42:56.165Z,3.30
2018-06-27T17:45:25.578Z,2.10
2018-06-27T17:47:54.334Z,3.10
2018-06-27T17:50:23.005Z,3.90
2018-06-27T17:52:51.741Z,2.70
2018-06-27T17:55:20.385Z,3.77
2018-06-27T17:57:50.208Z,4.17
2018-06-27T18:00:18.920Z,2.80
2018-06-27T18:02:47.707Z,5.97
2018-06-27T18:05:16.479Z,11.07
2018-06-27T18:07:45.181Z,4.07
2018-06-27T18:10:13.845Z,3.47
2018-06-27T18:12:45.665Z,1.70
2018-06-27T18:15:14.381Z,3.10
2018-06-27T18:17:43.098Z,3.50
2018-06-27T18:20:11.732Z,5.70
2018-06-27T18:22:40.824Z,1.70
2018-06-27T18:25:09.561Z,1.50
2018-06-27T18:27:38.234Z,3.43
2018-06-27T18:30:08.091Z,4.73
2018-06-27T18:32:41.581Z,1.77
2018-06-27T18:35:11.307Z,2.63
2018-06-27T18:37:40.122Z,5.17
2018-06-27T18:40:09.362Z,2.20
2018-06-27T18:42:38.137Z,3.37
2018-06-27T18:45:08.327Z,1.60
2018-06-27T18:47:37.045Z,2.03
2018-06-27T18:50:05.933Z,1.50
2018-06-27T18:52:34.667Z,4.53
2018-06-27T18:55:03.500Z,1.57
2018-06-27T18:57:32.123Z,6.00
2018-06-27T19:00:00.864Z,1.77
2018-06-27T19:02:29.588Z,1.50
2018-06-27T19:04:59.328Z,2.97
2018-06-27T19:07:28.146Z,5.10
2018-06-27T19:09:57.025Z,3.20
2018-06-27T19:12:25.784Z,3.80
2018-06-27T19:14:54.815Z,1.40
2018-06-27T19:17:23.511Z,2.73
2018-06-27T19:19:52.174Z,1.73
2018-06-27T19:22:20.903Z,3.43
2018-06-27T19:24:49.570Z,4.97
2018-06-27T19:27:18.382Z,2.07
2018-06-27T19:29:47.060Z,2.73
2018-06-27T19:32:15.820Z,1.70
2018-06-27T19:34:44.553Z,1.60
2018-06-27T19:37:13.297Z,2.47
2018-06-27T19:39:42.012Z,1.80
2018-06-27T19:42:10.750Z,1.87
2018-06-27T19:44:40.521Z,2.33
2018-06-27T19:47:09.258Z,1.63
2018-06-27T19:49:38.274Z,3.40
2018-06-27T19:52:08.008Z,1.87
2018-06-27T19:54:36.760Z,2.70
2018-06-27T19:57:05.739Z,1.87
2018-06-27T19:59:34.445Z,2.70
2018-06-27T20:02:03.248Z,4.47
2018-06-27T20:04:32.065Z,1.47
2018-06-27T20:07:00.754Z,2.67
2018-06-27T20:09:29.601Z,1.50
2018-06-27T20:11:58.274Z,2.20
2018-06-27T20:14:27.180Z,2.70
2018-06-27T20:16:55.803Z,2.63
2018-06-27T20:19:24.571Z,1.60
2018-06-27T20:21:53.264Z,2.63
2018-06-27T20:24:22.017Z,3.17
2018-06-27T20:26:51.307Z,2.10
2018-06-27T20:29:19.960Z,2.40
2018-06-27T20:31:48.754Z,3.33
2018-06-27T20:34:17.420Z,1.67
2018-06-27T20:36:46.122Z,3.27
2018-06-27T20:39:14.825Z,2.17
2018-06-27T20:41:43.615Z,4.67
2018-06-27T20:44:12.359Z,3.07
2018-06-27T20:46:41.069Z,1.80
2018-06-27T20:49:09.847Z,4.33
2018-06-27T20:51:38.576Z,1.80
2018-06-27T20:54:07.454Z,3.60
2018-06-27T20:56:36.180Z,3.87
2018-06-27T20:59:04.998Z,4.30
2018-06-27T21:01:33.744Z,2.17
2018-06-27T21:04:02.483Z,3.93
2018-06-27T21:06:31.111Z,2.53
2018-06-27T21:08:59.782Z,3.43
2018-06-27T21:11:29.564Z,2.53
2018-06-27T21:13:58.216Z,3.20
2018-06-27T21:16:26.920Z,5.17
2018-06-27T21:18:55.613Z,3.67
2018-06-27T21:21:24.389Z,3.03
2018-06-27T21:23:53.724Z,4.10
2018-06-27T21:26:23.457Z,4.23
2018-06-27T21:28:52.124Z,6.80
2018-06-27T21:31:20.940Z,4.17
2018-06-27T21:33:49.642Z,3.50
2018-06-27T21:36:17.932Z,5.20
2018-06-27T21:38:46.636Z,4.03
2018-06-27T21:41:15.502Z,2.70
2018-06-27T21:43:44.221Z,3.57
2018-06-27T21:46:12.920Z,2.40
2018-06-27T21:48:41.655Z,3.07
2018-06-27T21:51:10.288Z,8.40
2018-06-27T21:53:38.984Z,4.67
2018-06-27T21:56:10.740Z,5.40
2018-06-27T21:58:39.500Z,2.40
2018-06-27T22:01:08.221Z,2.27
2018-06-27T22:03:37.003Z,1.97
2018-06-27T22:06:05.505Z,2.00
2018-06-27T22:08:34.187Z,1.63
2018-06-27T22:11:02.928Z,3.40
2018-06-27T22:13:33.645Z,3.37
2018-06-27T22:16:02.463Z,7.93
2018-06-27T22:18:32.776Z,3.23
2018-06-27T22:21:01.516Z,8.57
2018-06-27T22:23:30.149Z,3.17
2018-06-27T22:25:58.899Z,2.03
2018-06-27T22:28:27.603Z,2.20
2018-06-27T22:30:56.271Z,2.20
2018-06-27T22:33:25.104Z,3.60
2018-06-27T22:35:53.767Z,2.83
2018-06-27T22:38:22.438Z,2.97
2018-06-27T22:40:51.247Z,2.20
2018-06-27T22:43:20.012Z,2.33
2018-06-27T22:45:49.258Z,2.57
2018-06-27T22:48:17.981Z,4.37
2018-06-27T22:50:46.719Z,2.43
2018-06-27T22:53:15.361Z,2.53
2018-06-27T22:55:44.163Z,3.27
2018-06-27T22:58:13.943Z,2.13
2018-06-27T23:00:42.646Z,2.40
2018-06-27T23:03:11.342Z,2.50
2018-06-27T23:05:40.100Z,2.87
2018-06-27T23:08:08.881Z,2.33
2018-06-27T23:10:37.605Z,2.17
2018-06-27T23:13:06.033Z,3.30
2018-06-27T23:15:35.719Z,2.53
2018-06-27T23:18:04.561Z,2.30
2018-06-27T23:20:33.170Z,4.50
2018-06-27T23:23:02.845Z,2.67
2018-06-27T23:25:31.938Z,2.53
2018-06-27T23:28:00.613Z,3.60
2018-06-27T23:30:29.239Z,2.60
2018-06-27T23:32:57.913Z,2.47
2018-06-27T23:35:26.637Z,2.57
2018-06-27T23:37:55.267Z,5.43
2018-06-27T23:40:25.036Z,3.80
2018-06-27T23:42:53.678Z,3.30
2018-06-27T23:45:23.127Z,2.67
2018-06-27T23:47:51.780Z,2.53
2018-06-27T23:50:20.455Z,2.33
2018-06-27T23:52:49.169Z,2.90
2018-06-27T23:55:17.873Z,2.50
2018-06-27T23:57:46.648Z,4.87
